sensor_id;sensor_type;location;lat;lon;timestamp;pressure;altitude;pressure_sealevel;temperature;humidity
49947;BME280;35839;48.662;13.300;2022-07-06T05:04:40;97746.25;;;14.66;100.00
49947;BME280;35839;48.662;13.300;2022-07-06T05:07:05;97752.84;;;14.62;100.00
49947;BME280;35839;48.662;13.300;2022-07-06T05:09:31;97758.28;;;14.69;100.00
49947;BME280;35839;48.662;13.300;2022-07-06T05:11:56;97759.06;;;14.28;100.00
49947;BME280;35839;48.662;13.300;2022-07-06T05:14:22;97754.31;;;14.48;100.00
49947;BME280;35839;48.662;13.300;2022-07-06T05:16:47;97764.69;;;14.50;100.00
49947;BME280;35839;48.662;13.300;2022-07-06T05:19:12;97768.16;;;14.67;100.00
49947;BME280;35839;48.662;13.300;2022-07-06T05:21:38;97767.09;;;15.09;100.00
49947;BME280;35839;48.662;13.300;2022-07-06T05:24:03;97766.66;;;14.72;100.00
49947;BME280;35839;48.662;13.300;2022-07-06T05:26:29;97762.97;;;15.06;100.00
49947;BME280;35839;48.662;13.300;2022-07-06T05:28:54;97765.22;;;15.34;100.00
49947;BME280;35839;48.662;13.300;2022-07-06T05:31:20;97763.81;;;15.46;100.00
49947;BME280;35839;48.662;13.300;2022-07-06T05:33:45;97775.19;;;15.47;100.00
49947;BME280;35839;48.662;13.300;2022-07-06T05:36:10;97773.66;;;15.60;100.00
49947;BME280;35839;48.662;13.300;2022-07-06T05:38:36;97770.59;;;15.80;100.00
49947;BME280;35839;48.662;13.300;2022-07-06T05:41:01;97773.22;;;15.88;100.00
49947;BME280;35839;48.662;13.300;2022-07-06T05:43:26;97773.25;;;15.80;100.00
49947;BME280;35839;48.662;13.300;2022-07-06T05:45:52;97764.59;;;15.94;100.00
49947;BME280;35839;48.662;13.300;2022-07-06T05:48:17;97774.88;;;16.12;100.00
49947;BME280;35839;48.662;13.300;2022-07-06T05:51:01;97773.94;;;16.05;100.00
49947;BME280;35839;48.662;13.300;2022-07-06T05:53:26;97778.50;;;15.88;100.00
49947;BME280;35839;48.662;13.300;2022-07-06T05:55:52;97778.09;;;15.99;100.00
49947;BME280;35839;48.662;13.300;2022-07-06T05:58:17;97777.09;;;16.23;100.00
49947;BME280;35839;48.662;13.300;2022-07-06T06:00:43;97776.00;;;16.18;100.00
49947;BME280;35839;48.662;13.300;2022-07-06T06:03:09;97780.72;;;16.46;100.00
49947;BME280;35839;48.662;13.300;2022-07-06T06:05:34;97769.09;;;16.55;100.00
49947;BME280;35839;48.662;13.300;2022-07-06T06:07:59;97783.31;;;16.54;100.00
49947;BME280;35839;48.662;13.300;2022-07-06T06:10:25;97779.25;;;16.66;100.00
49947;BME280;35839;48.662;13.300;2022-07-06T06:12:51;97780.81;;;16.75;100.00
49947;BME280;35839;48.662;13.300;2022-07-06T06:15:17;97784.69;;;16.88;100.00
49947;BME280;35839;48.662;13.300;2022-07-06T06:17:43;97774.22;;;16.94;100.00
49947;BME280;35839;48.662;13.300;2022-07-06T06:20:10;97778.25;;;17.05;100.00
49947;BME280;35839;48.662;13.300;2022-07-06T06:25:11;97785.53;;;17.03;100.00
49947;BME280;35839;48.662;13.300;2022-07-06T06:27:36;97791.47;;;17.05;100.00
49947;BME280;35839;48.662;13.300;2022-07-06T06:30:02;97781.16;;;17.10;100.00
49947;BME280;35839;48.662;13.300;2022-07-06T06:32:29;97787.75;;;16.99;100.00
49947;BME280;35839;48.662;13.300;2022-07-06T06:34:54;97795.47;;;17.01;100.00
49947;BME280;35839;48.662;13.300;2022-07-06T06:37:19;97791.94;;;17.09;98.56
49947;BME280;35839;48.662;13.300;2022-07-06T06:39:45;97790.47;;;17.06;99.82
49947;BME280;35839;48.662;13.300;2022-07-06T06:42:10;97793.31;;;17.19;98.88
49947;BME280;35839;48.662;13.300;2022-07-06T06:44:35;97799.34;;;17.28;100.00
49947;BME280;35839;48.662;13.300;2022-07-06T06:47:01;97805.63;;;17.57;100.00
49947;BME280;35839;48.662;13.300;2022-07-06T06:49:26;97800.13;;;17.73;100.00
49947;BME280;35839;48.662;13.300;2022-07-06T06:51:51;97797.56;;;17.80;98.35
49947;BME280;35839;48.662;13.300;2022-07-06T06:54:17;97797.41;;;17.81;99.56
49947;BME280;35839;48.662;13.300;2022-07-06T06:56:42;97795.50;;;18.11;98.29
49947;BME280;35839;48.662;13.300;2022-07-06T06:59:08;97796.38;;;17.97;94.92
49947;BME280;35839;48.662;13.300;2022-07-06T07:01:33;97798.16;;;18.11;99.80
49947;BME280;35839;48.662;13.300;2022-07-06T07:03:58;97797.78;;;18.15;97.89
49947;BME280;35839;48.662;13.300;2022-07-06T07:06:24;97798.66;;;18.22;96.99
49947;BME280;35839;48.662;13.300;2022-07-06T07:08:49;97795.25;;;18.49;100.00
49947;BME280;35839;48.662;13.300;2022-07-06T07:11:15;97795.38;;;18.63;98.18
49947;BME280;35839;48.662;13.300;2022-07-06T07:13:40;97798.38;;;18.60;97.87
49947;BME280;35839;48.662;13.300;2022-07-06T07:16:06;97804.84;;;18.72;98.50
49947;BME280;35839;48.662;13.300;2022-07-06T07:18:31;97808.19;;;18.81;94.90
49947;BME280;35839;48.662;13.300;2022-07-06T07:20:57;97801.31;;;18.86;95.57
49947;BME280;35839;48.662;13.300;2022-07-06T07:23:22;97802.41;;;18.99;93.99
49947;BME280;35839;48.662;13.300;2022-07-06T07:25:47;97800.91;;;18.89;95.87
49947;BME280;35839;48.662;13.300;2022-07-06T07:28:13;97813.31;;;18.82;94.34
49947;BME280;35839;48.662;13.300;2022-07-06T07:30:38;97809.50;;;18.91;90.53
49947;BME280;35839;48.662;13.300;2022-07-06T07:33:04;97810.84;;;19.09;92.67
49947;BME280;35839;48.662;13.300;2022-07-06T07:35:29;97819.09;;;19.21;88.98
49947;BME280;35839;48.662;13.300;2022-07-06T07:37:54;97816.34;;;19.35;90.67
49947;BME280;35839;48.662;13.300;2022-07-06T07:40:20;97810.13;;;19.56;90.72
49947;BME280;35839;48.662;13.300;2022-07-06T07:42:45;97821.03;;;19.33;87.34
49947;BME280;35839;48.662;13.300;2022-07-06T07:45:11;97813.63;;;19.29;91.40
49947;BME280;35839;48.662;13.300;2022-07-06T07:47:37;97802.59;;;19.67;92.46
49947;BME280;35839;48.662;13.300;2022-07-06T07:50:03;97808.97;;;19.31;89.42
49947;BME280;35839;48.662;13.300;2022-07-06T07:52:29;97804.03;;;19.28;87.00
49947;BME280;35839;48.662;13.300;2022-07-06T07:54:54;97802.75;;;19.52;86.17
49947;BME280;35839;48.662;13.300;2022-07-06T07:57:20;97806.44;;;19.57;87.57
49947;BME280;35839;48.662;13.300;2022-07-06T07:59:45;97805.00;;;19.55;86.57
49947;BME280;35839;48.662;13.300;2022-07-06T08:02:10;97798.84;;;19.89;84.28
49947;BME280;35839;48.662;13.300;2022-07-06T08:04:36;97799.03;;;19.88;83.98
49947;BME280;35839;48.662;13.300;2022-07-06T08:07:01;97802.38;;;20.10;84.53
49947;BME280;35839;48.662;13.300;2022-07-06T08:09:26;97803.25;;;20.37;83.01
49947;BME280;35839;48.662;13.300;2022-07-06T08:11:52;97804.19;;;20.09;82.28
49947;BME280;35839;48.662;13.300;2022-07-06T08:14:17;97800.81;;;20.55;82.28
49947;BME280;35839;48.662;13.300;2022-07-06T08:16:43;97795.09;;;20.52;79.75
49947;BME280;35839;48.662;13.300;2022-07-06T08:19:08;97798.81;;;20.84;80.08
49947;BME280;35839;48.662;13.300;2022-07-06T08:21:34;97794.31;;;20.98;81.34
49947;BME280;35839;48.662;13.300;2022-07-06T08:24:00;97801.06;;;21.00;78.22
49947;BME280;35839;48.662;13.300;2022-07-06T08:26:27;97809.25;;;20.79;78.23
49947;BME280;35839;48.662;13.300;2022-07-06T08:28:52;97814.38;;;21.00;76.57
49947;BME280;35839;48.662;13.300;2022-07-06T08:31:18;97812.28;;;21.09;75.88
49947;BME280;35839;48.662;13.300;2022-07-06T08:33:43;97807.38;;;21.13;75.39
49947;BME280;35839;48.662;13.300;2022-07-06T08:36:09;97807.78;;;21.23;75.76
49947;BME280;35839;48.662;13.300;2022-07-06T08:38:34;97805.69;;;21.38;72.10
49947;BME280;35839;48.662;13.300;2022-07-06T08:41:00;97807.34;;;21.46;70.12
49947;BME280;35839;48.662;13.300;2022-07-06T08:43:25;97808.94;;;21.54;71.60
49947;BME280;35839;48.662;13.300;2022-07-06T08:45:53;97807.72;;;22.08;74.39
49947;BME280;35839;48.662;13.300;2022-07-06T08:48:22;97811.75;;;21.79;72.99
49947;BME280;35839;48.662;13.300;2022-07-06T08:50:48;97810.13;;;21.71;71.42
49947;BME280;35839;48.662;13.300;2022-07-06T08:53:16;97812.22;;;21.56;68.21
49947;BME280;35839;48.662;13.300;2022-07-06T08:55:42;97809.63;;;21.94;67.88
49947;BME280;35839;48.662;13.300;2022-07-06T08:58:07;97806.34;;;21.99;69.89
49947;BME280;35839;48.662;13.300;2022-07-06T09:00:33;97804.41;;;22.13;67.57
49947;BME280;35839;48.662;13.300;2022-07-06T09:02:59;97800.59;;;22.65;69.92
49947;BME280;35839;48.662;13.300;2022-07-06T09:05:25;97801.06;;;23.12;68.50
49947;BME280;35839;48.662;13.300;2022-07-06T09:07:52;97795.13;;;23.10;65.99
49947;BME280;35839;48.662;13.300;2022-07-06T09:10:19;97799.88;;;23.08;63.27
49947;BME280;35839;48.662;13.300;2022-07-06T09:12:45;97796.38;;;23.08;63.88
49947;BME280;35839;48.662;13.300;2022-07-06T09:15:11;97797.84;;;23.47;62.53
49947;BME280;35839;48.662;13.300;2022-07-06T09:17:38;97799.81;;;23.52;62.14
49947;BME280;35839;48.662;13.300;2022-07-06T09:20:13;97806.25;;;23.26;60.49
49947;BME280;35839;48.662;13.300;2022-07-06T09:22:39;97804.09;;;22.91;57.86
49947;BME280;35839;48.662;13.300;2022-07-06T09:25:10;97802.25;;;23.35;66.06
49947;BME280;35839;48.662;13.300;2022-07-06T09:27:40;97788.47;;;23.75;60.07
49947;BME280;35839;48.662;13.300;2022-07-06T09:30:07;97792.78;;;23.76;57.57
49947;BME280;35839;48.662;13.300;2022-07-06T09:32:46;97792.38;;;23.72;60.53
49947;BME280;35839;48.662;13.300;2022-07-06T09:35:26;97804.28;;;24.25;59.38
49947;BME280;35839;48.662;13.300;2022-07-06T09:38:12;97796.34;;;24.18;57.70
49947;BME280;35839;48.662;13.300;2022-07-06T09:40:39;97792.78;;;24.55;57.17
49947;BME280;35839;48.662;13.300;2022-07-06T09:45:38;97805.44;;;24.17;56.01
49947;BME280;35839;48.662;13.300;2022-07-06T09:48:15;97806.09;;;24.13;56.71
49947;BME280;35839;48.662;13.300;2022-07-06T09:50:45;97798.38;;;24.35;56.55
49947;BME280;35839;48.662;13.300;2022-07-06T09:53:13;97798.25;;;24.60;56.83
49947;BME280;35839;48.662;13.300;2022-07-06T09:55:43;97798.31;;;24.11;55.54
49947;BME280;35839;48.662;13.300;2022-07-06T09:58:08;97795.75;;;24.47;56.53
49947;BME280;35839;48.662;13.300;2022-07-06T10:00:34;97797.25;;;25.08;55.74
49947;BME280;35839;48.662;13.300;2022-07-06T10:03:00;97788.47;;;24.89;56.69
49947;BME280;35839;48.662;13.300;2022-07-06T10:05:25;97792.22;;;24.88;53.01
49947;BME280;35839;48.662;13.300;2022-07-06T10:07:57;97803.03;;;24.81;52.88
49947;BME280;35839;48.662;13.300;2022-07-06T10:10:25;97793.00;;;24.65;53.84
49947;BME280;35839;48.662;13.300;2022-07-06T10:12:51;97797.94;;;25.03;56.25
49947;BME280;35839;48.662;13.300;2022-07-06T10:15:21;97791.66;;;25.33;53.51
49947;BME280;35839;48.662;13.300;2022-07-06T10:17:47;97786.28;;;25.45;54.27
49947;BME280;35839;48.662;13.300;2022-07-06T10:20:14;97791.78;;;25.50;51.14
49947;BME280;35839;48.662;13.300;2022-07-06T10:22:40;97789.09;;;25.27;55.77
49947;BME280;35839;48.662;13.300;2022-07-06T10:25:06;97790.00;;;25.56;54.42
49947;BME280;35839;48.662;13.300;2022-07-06T10:27:32;97790.03;;;25.20;50.64
49947;BME280;35839;48.662;13.300;2022-07-06T10:29:59;97780.34;;;25.31;54.13
49947;BME280;35839;48.662;13.300;2022-07-06T10:32:25;97787.59;;;25.19;49.32
49947;BME280;35839;48.662;13.300;2022-07-06T10:34:51;97783.72;;;25.50;52.43
49947;BME280;35839;48.662;13.300;2022-07-06T10:37:27;97787.09;;;25.57;51.41
49947;BME280;35839;48.662;13.300;2022-07-06T10:39:53;97787.00;;;25.93;51.83
49947;BME280;35839;48.662;13.300;2022-07-06T10:45:06;97778.50;;;25.84;48.88
49947;BME280;35839;48.662;13.300;2022-07-06T10:47:31;97794.25;;;26.21;48.24
49947;BME280;35839;48.662;13.300;2022-07-06T10:50:00;97786.25;;;26.09;47.76
49947;BME280;35839;48.662;13.300;2022-07-06T10:52:52;97796.31;;;26.47;50.33
49947;BME280;35839;48.662;13.300;2022-07-06T10:55:34;97798.22;;;26.18;47.14
49947;BME280;35839;48.662;13.300;2022-07-06T10:58:00;97773.16;;;25.32;50.46
49947;BME280;35839;48.662;13.300;2022-07-06T11:00:26;97780.31;;;25.43;50.00
49947;BME280;35839;48.662;13.300;2022-07-06T11:02:51;97786.63;;;24.78;51.99
49947;BME280;35839;48.662;13.300;2022-07-06T11:05:41;97792.81;;;24.78;49.26
49947;BME280;35839;48.662;13.300;2022-07-06T11:08:10;97787.03;;;25.81;48.43
49947;BME280;35839;48.662;13.300;2022-07-06T11:10:48;97788.97;;;25.97;51.40
49947;BME280;35839;48.662;13.300;2022-07-06T11:13:29;97791.06;;;25.43;48.87
49947;BME280;35839;48.662;13.300;2022-07-06T11:16:02;97784.59;;;26.08;48.72
49947;BME280;35839;48.662;13.300;2022-07-06T11:18:40;97783.16;;;26.17;49.48
49947;BME280;35839;48.662;13.300;2022-07-06T11:21:22;97791.97;;;26.75;45.79
49947;BME280;35839;48.662;13.300;2022-07-06T11:23:50;97788.50;;;26.00;45.84
49947;BME280;35839;48.662;13.300;2022-07-06T11:26:17;97787.97;;;26.61;45.18
49947;BME280;35839;48.662;13.300;2022-07-06T11:28:46;97791.16;;;26.91;43.69
49947;BME280;35839;48.662;13.300;2022-07-06T11:31:12;97790.56;;;26.89;43.25
49947;BME280;35839;48.662;13.300;2022-07-06T11:33:37;97794.88;;;26.74;43.55
49947;BME280;35839;48.662;13.300;2022-07-06T11:36:21;97794.53;;;27.04;43.37
49947;BME280;35839;48.662;13.300;2022-07-06T11:38:48;97780.81;;;25.40;45.64
49947;BME280;35839;48.662;13.300;2022-07-06T11:41:15;97786.66;;;25.89;48.41
49947;BME280;35839;48.662;13.300;2022-07-06T11:43:42;97777.81;;;25.77;46.84
49947;BME280;35839;48.662;13.300;2022-07-06T11:46:20;97777.56;;;25.90;43.04
49947;BME280;35839;48.662;13.300;2022-07-06T11:48:47;97776.03;;;25.82;42.81
49947;BME280;35839;48.662;13.300;2022-07-06T11:51:13;97785.19;;;26.89;46.68
49947;BME280;35839;48.662;13.300;2022-07-06T11:53:46;97780.66;;;26.73;41.16
49947;BME280;35839;48.662;13.300;2022-07-06T11:56:12;97780.97;;;27.71;43.79
49947;BME280;35839;48.662;13.300;2022-07-06T11:58:39;97769.91;;;26.73;41.98
49947;BME280;35839;48.662;13.300;2022-07-06T12:01:09;97772.78;;;27.39;40.10
49947;BME280;35839;48.662;13.300;2022-07-06T12:03:35;97768.97;;;27.35;38.99
49947;BME280;35839;48.662;13.300;2022-07-06T12:06:05;97767.19;;;26.39;39.81
49947;BME280;35839;48.662;13.300;2022-07-06T12:08:31;97755.94;;;27.71;39.96
49947;BME280;35839;48.662;13.300;2022-07-06T12:10:58;97771.06;;;26.77;37.76
49947;BME280;35839;48.662;13.300;2022-07-06T12:13:24;97751.31;;;27.05;39.18
49947;BME280;35839;48.662;13.300;2022-07-06T12:15:50;97756.56;;;26.95;37.47
49947;BME280;35839;48.662;13.300;2022-07-06T12:18:16;97758.78;;;26.36;37.63
49947;BME280;35839;48.662;13.300;2022-07-06T12:20:41;97750.91;;;26.97;36.90
49947;BME280;35839;48.662;13.300;2022-07-06T12:23:07;97748.59;;;26.83;38.16
49947;BME280;35839;48.662;13.300;2022-07-06T12:25:34;97751.97;;;26.96;39.80
49947;BME280;35839;48.662;13.300;2022-07-06T12:28:00;97752.50;;;26.59;35.84
49947;BME280;35839;48.662;13.300;2022-07-06T12:30:26;97748.84;;;26.19;38.97
49947;BME280;35839;48.662;13.300;2022-07-06T12:33:14;97746.19;;;26.36;38.13
49947;BME280;35839;48.662;13.300;2022-07-06T12:35:41;97739.81;;;27.71;37.69
49947;BME280;35839;48.662;13.300;2022-07-06T12:38:08;97742.06;;;26.79;35.44
49947;BME280;35839;48.662;13.300;2022-07-06T12:40:36;97745.91;;;27.39;35.48
49947;BME280;35839;48.662;13.300;2022-07-06T12:43:03;97745.13;;;27.66;36.11
49947;BME280;35839;48.662;13.300;2022-07-06T12:45:29;97749.78;;;28.25;34.47
49947;BME280;35839;48.662;13.300;2022-07-06T12:48:13;97740.06;;;27.69;37.92
49947;BME280;35839;48.662;13.300;2022-07-06T12:50:40;97737.66;;;29.24;36.65
49947;BME280;35839;48.662;13.300;2022-07-06T12:53:12;97732.94;;;28.67;33.98
49947;BME280;35839;48.662;13.300;2022-07-06T12:55:48;97742.97;;;28.12;33.77
49947;BME280;35839;48.662;13.300;2022-07-06T12:58:18;97732.31;;;28.54;35.19
49947;BME280;35839;48.662;13.300;2022-07-06T13:00:44;97734.06;;;28.71;35.85
49947;BME280;35839;48.662;13.300;2022-07-06T13:03:13;97733.19;;;28.33;34.99
49947;BME280;35839;48.662;13.300;2022-07-06T13:05:39;97736.50;;;29.10;32.97
49947;BME280;35839;48.662;13.300;2022-07-06T13:08:04;97736.06;;;27.72;33.00
49947;BME280;35839;48.662;13.300;2022-07-06T13:10:29;97727.06;;;28.70;32.88
49947;BME280;35839;48.662;13.300;2022-07-06T13:12:58;97737.53;;;28.39;34.37
49947;BME280;35839;48.662;13.300;2022-07-06T13:15:24;97732.25;;;27.46;33.84
49947;BME280;35839;48.662;13.300;2022-07-06T13:17:49;97734.06;;;26.34;36.13
49947;BME280;35839;48.662;13.300;2022-07-06T13:20:15;97735.41;;;26.02;36.49
49947;BME280;35839;48.662;13.300;2022-07-06T13:22:42;97727.94;;;27.89;34.58
49947;BME280;35839;48.662;13.300;2022-07-06T13:25:08;97723.84;;;28.78;36.07
49947;BME280;35839;48.662;13.300;2022-07-06T13:27:33;97721.22;;;29.26;32.87
49947;BME280;35839;48.662;13.300;2022-07-06T13:29:59;97726.31;;;27.44;35.60
49947;BME280;35839;48.662;13.300;2022-07-06T13:32:25;97717.25;;;28.53;35.05
49947;BME280;35839;48.662;13.300;2022-07-06T13:34:50;97717.94;;;28.81;34.41
49947;BME280;35839;48.662;13.300;2022-07-06T13:37:16;97726.72;;;28.34;32.68
49947;BME280;35839;48.662;13.300;2022-07-06T13:39:41;97721.72;;;27.22;35.68
49947;BME280;35839;48.662;13.300;2022-07-06T13:42:06;97723.41;;;27.72;36.46
49947;BME280;35839;48.662;13.300;2022-07-06T13:44:33;97719.53;;;28.72;36.02
49947;BME280;35839;48.662;13.300;2022-07-06T13:46:59;97720.91;;;28.79;36.21
49947;BME280;35839;48.662;13.300;2022-07-06T13:49:25;97717.44;;;30.15;34.92
49947;BME280;35839;48.662;13.300;2022-07-06T13:51:50;97718.19;;;29.90;33.64
49947;BME280;35839;48.662;13.300;2022-07-06T13:54:15;97722.16;;;29.62;32.75
49947;BME280;35839;48.662;13.300;2022-07-06T13:56:41;97717.13;;;28.81;34.62
49947;BME280;35839;48.662;13.300;2022-07-06T13:59:06;97715.03;;;28.88;35.52
49947;BME280;35839;48.662;13.300;2022-07-06T14:01:32;97720.19;;;28.25;37.24
49947;BME280;35839;48.662;13.300;2022-07-06T14:03:59;97714.47;;;27.89;34.65
49947;BME280;35839;48.662;13.300;2022-07-06T14:06:24;97718.34;;;29.00;33.46
49947;BME280;35839;48.662;13.300;2022-07-06T14:08:50;97711.34;;;29.52;32.23
49947;BME280;35839;48.662;13.300;2022-07-06T14:11:16;97707.66;;;28.73;32.60
49947;BME280;35839;48.662;13.300;2022-07-06T14:13:42;97703.38;;;27.19;35.29
49947;BME280;35839;48.662;13.300;2022-07-06T14:16:08;97701.63;;;27.08;37.06
49947;BME280;35839;48.662;13.300;2022-07-06T14:18:34;97717.97;;;26.84;36.22
49947;BME280;35839;48.662;13.300;2022-07-06T14:20:59;97704.03;;;27.70;35.90
49947;BME280;35839;48.662;13.300;2022-07-06T14:23:29;97706.47;;;26.89;37.18
49947;BME280;35839;48.662;13.300;2022-07-06T14:25:55;97702.13;;;27.05;35.84
49947;BME280;35839;48.662;13.300;2022-07-06T14:28:20;97692.66;;;27.41;36.61
49947;BME280;35839;48.662;13.300;2022-07-06T14:30:46;97693.78;;;26.84;36.35
49947;BME280;35839;48.662;13.300;2022-07-06T14:33:13;97699.22;;;26.89;36.68
49947;BME280;35839;48.662;13.300;2022-07-06T14:35:41;97688.50;;;26.73;37.55
49947;BME280;35839;48.662;13.300;2022-07-06T14:38:07;97692.31;;;27.82;34.51
49947;BME280;35839;48.662;13.300;2022-07-06T14:40:34;97684.22;;;30.15;33.41
49947;BME280;35839;48.662;13.300;2022-07-06T14:43:00;97680.59;;;28.57;34.33
49947;BME280;35839;48.662;13.300;2022-07-06T14:45:26;97700.09;;;27.34;34.37
49947;BME280;35839;48.662;13.300;2022-07-06T14:47:51;97688.84;;;26.42;35.28
49947;BME280;35839;48.662;13.300;2022-07-06T14:50:17;97685.56;;;28.06;32.67
49947;BME280;35839;48.662;13.300;2022-07-06T14:52:42;97679.59;;;29.79;32.55
49947;BME280;35839;48.662;13.300;2022-07-06T14:55:08;97690.25;;;29.49;32.14
49947;BME280;35839;48.662;13.300;2022-07-06T14:57:33;97685.94;;;29.42;32.05
49947;BME280;35839;48.662;13.300;2022-07-06T14:59:58;97681.09;;;28.17;32.79
49947;BME280;35839;48.662;13.300;2022-07-06T15:02:24;97686.59;;;28.65;33.71
49947;BME280;35839;48.662;13.300;2022-07-06T15:04:49;97674.94;;;29.59;32.80
49947;BME280;35839;48.662;13.300;2022-07-06T15:07:15;97682.34;;;30.41;30.47
49947;BME280;35839;48.662;13.300;2022-07-06T15:09:40;97683.50;;;29.41;29.00
49947;BME280;35839;48.662;13.300;2022-07-06T15:12:06;97684.84;;;27.40;31.17
49947;BME280;35839;48.662;13.300;2022-07-06T15:14:32;97682.34;;;27.33;32.33
49947;BME280;35839;48.662;13.300;2022-07-06T15:16:57;97673.81;;;29.55;30.93
49947;BME280;35839;48.662;13.300;2022-07-06T15:19:23;97676.41;;;30.54;29.32
49947;BME280;35839;48.662;13.300;2022-07-06T15:21:49;97673.69;;;30.03;29.55
49947;BME280;35839;48.662;13.300;2022-07-06T15:24:15;97664.19;;;30.93;29.81
49947;BME280;35839;48.662;13.300;2022-07-06T15:26:40;97665.31;;;29.89;27.99
49947;BME280;35839;48.662;13.300;2022-07-06T15:29:06;97671.25;;;28.01;31.24
49947;BME280;35839;48.662;13.300;2022-07-06T15:31:31;97665.22;;;27.39;31.63
49947;BME280;35839;48.662;13.300;2022-07-06T15:33:57;97672.13;;;27.57;31.83
49947;BME280;35839;48.662;13.300;2022-07-06T15:36:22;97665.75;;;27.63;32.74
49947;BME280;35839;48.662;13.300;2022-07-06T15:38:48;97661.59;;;28.37;31.48
49947;BME280;35839;48.662;13.300;2022-07-06T15:41:14;97666.06;;;27.94;30.96
49947;BME280;35839;48.662;13.300;2022-07-06T15:43:39;97655.88;;;29.13;32.18
49947;BME280;35839;48.662;13.300;2022-07-06T15:46:05;97656.16;;;30.36;28.53
49947;BME280;35839;48.662;13.300;2022-07-06T15:48:31;97662.38;;;30.27;27.77
49947;BME280;35839;48.662;13.300;2022-07-06T15:50:58;97651.78;;;30.71;28.62
49947;BME280;35839;48.662;13.300;2022-07-06T15:53:23;97648.91;;;31.27;28.49
49947;BME280;35839;48.662;13.300;2022-07-06T15:55:49;97642.53;;;32.37;27.17
49947;BME280;35839;48.662;13.300;2022-07-06T15:58:15;97652.63;;;30.20;26.57
49947;BME280;35839;48.662;13.300;2022-07-06T16:00:41;97653.66;;;29.68;27.64
49947;BME280;35839;48.662;13.300;2022-07-06T16:03:07;97648.06;;;28.64;28.52
49947;BME280;35839;48.662;13.300;2022-07-06T16:05:32;97653.34;;;27.62;29.15
49947;BME280;35839;48.662;13.300;2022-07-06T16:07:58;97660.28;;;27.53;29.12
49947;BME280;35839;48.662;13.300;2022-07-06T16:10:23;97646.03;;;28.82;29.29
49947;BME280;35839;48.662;13.300;2022-07-06T16:12:49;97649.72;;;29.23;29.28
49947;BME280;35839;48.662;13.300;2022-07-06T16:15:17;97647.38;;;29.42;27.62
49947;BME280;35839;48.662;13.300;2022-07-06T16:17:42;97651.88;;;28.73;27.84
49947;BME280;35839;48.662;13.300;2022-07-06T16:20:09;97649.16;;;31.41;29.11
49947;BME280;35839;48.662;13.300;2022-07-06T16:22:34;97642.41;;;31.34;27.20
49947;BME280;35839;48.662;13.300;2022-07-06T16:25:00;97656.66;;;29.92;28.00
49947;BME280;35839;48.662;13.300;2022-07-06T16:27:25;97644.16;;;29.55;28.32
49947;BME280;35839;48.662;13.300;2022-07-06T16:29:51;97644.53;;;30.56;28.00
49947;BME280;35839;48.662;13.300;2022-07-06T16:32:16;97641.56;;;30.48;27.64
49947;BME280;35839;48.662;13.300;2022-07-06T16:34:41;97634.78;;;30.04;28.40
49947;BME280;35839;48.662;13.300;2022-07-06T16:37:07;97635.31;;;29.86;27.78
49947;BME280;35839;48.662;13.300;2022-07-06T16:39:32;97640.72;;;29.86;27.72
49947;BME280;35839;48.662;13.300;2022-07-06T16:41:59;97641.56;;;31.43;27.70
49947;BME280;35839;48.662;13.300;2022-07-06T16:44:25;97639.59;;;30.84;24.92
49947;BME280;35839;48.662;13.300;2022-07-06T16:46:50;97635.34;;;30.16;26.13
49947;BME280;35839;48.662;13.300;2022-07-06T16:49:16;97637.22;;;30.16;27.86
49947;BME280;35839;48.662;13.300;2022-07-06T16:51:42;97627.78;;;29.98;26.79
49947;BME280;35839;48.662;13.300;2022-07-06T16:54:07;97629.63;;;29.72;29.67
49947;BME280;35839;48.662;13.300;2022-07-06T16:56:33;97634.81;;;30.40;27.63
49947;BME280;35839;48.662;13.300;2022-07-06T16:58:58;97636.09;;;29.66;27.96
49947;BME280;35839;48.662;13.300;2022-07-06T17:01:23;97636.22;;;28.28;29.83
49947;BME280;35839;48.662;13.300;2022-07-06T17:03:49;97632.00;;;28.85;29.03
49947;BME280;35839;48.662;13.300;2022-07-06T17:06:14;97634.78;;;29.68;28.35
49947;BME280;35839;48.662;13.300;2022-07-06T17:08:40;97637.31;;;28.32;29.32
49947;BME280;35839;48.662;13.300;2022-07-06T17:11:05;97627.38;;;28.70;28.69
49947;BME280;35839;48.662;13.300;2022-07-06T17:13:30;97632.81;;;28.85;29.36
49947;BME280;35839;48.662;13.300;2022-07-06T17:15:57;97636.47;;;27.94;29.80
49947;BME280;35839;48.662;13.300;2022-07-06T17:18:23;97637.13;;;27.52;32.42
49947;BME280;35839;48.662;13.300;2022-07-06T17:20:48;97634.63;;;26.45;32.68
49947;BME280;35839;48.662;13.300;2022-07-06T17:23:14;97634.91;;;26.27;32.65
49947;BME280;35839;48.662;13.300;2022-07-06T17:25:40;97633.53;;;25.33;34.00
49947;BME280;35839;48.662;13.300;2022-07-06T17:28:05;97638.84;;;25.74;33.36
49947;BME280;35839;48.662;13.300;2022-07-06T17:30:31;97635.44;;;25.09;36.15
49947;BME280;35839;48.662;13.300;2022-07-06T17:32:59;97631.84;;;25.03;35.57
49947;BME280;35839;48.662;13.300;2022-07-06T17:35:24;97632.72;;;24.69;36.56
49947;BME280;35839;48.662;13.300;2022-07-06T17:37:49;97638.19;;;24.38;35.78
49947;BME280;35839;48.662;13.300;2022-07-06T17:40:15;97639.47;;;24.83;36.10
49947;BME280;35839;48.662;13.300;2022-07-06T17:42:40;97627.56;;;24.91;34.28
49947;BME280;35839;48.662;13.300;2022-07-06T17:45:06;97623.03;;;24.79;34.60
49947;BME280;35839;48.662;13.300;2022-07-06T17:47:31;97628.72;;;24.12;35.64
49947;BME280;35839;48.662;13.300;2022-07-06T17:49:57;97639.56;;;24.17;36.26
49947;BME280;35839;48.662;13.300;2022-07-06T17:52:22;97635.56;;;23.96;37.29
49947;BME280;35839;48.662;13.300;2022-07-06T17:54:47;97633.13;;;23.65;36.98
49947;BME280;35839;48.662;13.300;2022-07-06T17:57:13;97628.09;;;23.87;36.81